Terminal Aerodrome Forecast
Issued by NWS

Home | Current Version | Previous Version | Text Only | Print | Product List | Glossary On
Versions: 1 2 3 4 5 6 7 8 9 10 11 12 13 14 15 16
000
FTUS42 KTAE 271120
TAFVLD
TAF
KVLD 271120Z 2712/2812 17003KT P6SM BKN015
     FM271500 19013G19KT P6SM SCT030 BKN050
     FM280300 19005KT P6SM BKN020=

USA.gov is the U.S. government's official web portal to all federal, state and local government web resources and services.